Northwest, Indiana
Current Conditions -  °F | °C
As of 3:35 AM on Saturday 25 Oct 2014 (Local Time) from KDCY Reporting Station
Haze Haze  
Wind Chill: 10°   Ceiling: Unl
Heat Index: 10°   Visibility: 5mi
Dew Point: 10°   Wind: 3mph
Humidity: 100%   Direction: 150°SSE
Pressure: 30.01"   Gusts: NA
Location:  38.6165°N, 86.6265°W
Report Text: KDCY 250735Z AUTO 15003KT 5SM BR SCT044 10/10 A3001 RMK AO2 T01000100
Loading
Personal Weather Stations






























Interactive Weather Map
Tropical Storm Tracking
New forecast layout! Learn more

10-Day Weather Forecast

Advertisements
Track Severe Weather on mobile